sensor_id;sensor_type;location;lat;lon;timestamp;P1;durP1;ratioP1;P2;durP2;ratioP2
15889;SDS011;8043;49.388;12.128;2022-11-20T00:00:28;10.17;;;5.30;;
15889;SDS011;8043;49.388;12.128;2022-11-20T00:05:31;10.67;;;5.03;;
15889;SDS011;8043;49.388;12.128;2022-11-20T00:10:37;13.77;;;7.17;;
15889;SDS011;8043;49.388;12.128;2022-11-20T00:15:40;12.13;;;4.67;;
15889;SDS011;8043;49.388;12.128;2022-11-20T00:20:48;10.45;;;4.53;;
15889;SDS011;8043;49.388;12.128;2022-11-20T00:25:46;11.27;;;5.43;;
15889;SDS011;8043;49.388;12.128;2022-11-20T00:30:49;10.07;;;4.80;;
15889;SDS011;8043;49.388;12.128;2022-11-20T00:35:51;15.17;;;6.27;;
15889;SDS011;8043;49.388;12.128;2022-11-20T00:40:56;13.88;;;5.72;;
15889;SDS011;8043;49.388;12.128;2022-11-20T00:46:03;12.93;;;5.70;;
15889;SDS011;8043;49.388;12.128;2022-11-20T00:51:07;14.17;;;5.33;;
15889;SDS011;8043;49.388;12.128;2022-11-20T00:56:11;14.30;;;5.80;;
15889;SDS011;8043;49.388;12.128;2022-11-20T01:06:22;9.10;;;5.10;;
15889;SDS011;8043;49.388;12.128;2022-11-20T01:11:27;12.07;;;5.90;;
15889;SDS011;8043;49.388;12.128;2022-11-20T01:16:35;12.93;;;6.00;;
15889;SDS011;8043;49.388;12.128;2022-11-20T01:21:39;15.20;;;6.97;;
15889;SDS011;8043;49.388;12.128;2022-11-20T01:26:43;12.53;;;7.07;;
15889;SDS011;8043;49.388;12.128;2022-11-20T01:31:46;9.60;;;5.57;;
15889;SDS011;8043;49.388;12.128;2022-11-20T01:36:48;10.87;;;5.07;;
15889;SDS011;8043;49.388;12.128;2022-11-20T01:41:51;9.77;;;4.90;;
15889;SDS011;8043;49.388;12.128;2022-11-20T01:47:13;10.50;;;5.27;;
15889;SDS011;8043;49.388;12.128;2022-11-20T01:52:17;11.10;;;5.30;;
15889;SDS011;8043;49.388;12.128;2022-11-20T01:57:22;12.57;;;6.80;;
15889;SDS011;8043;49.388;12.128;2022-11-20T02:02:26;11.97;;;5.93;;
15889;SDS011;8043;49.388;12.128;2022-11-20T02:07:29;12.47;;;5.97;;
15889;SDS011;8043;49.388;12.128;2022-11-20T02:12:32;12.98;;;6.33;;
15889;SDS011;8043;49.388;12.128;2022-11-20T02:17:52;12.27;;;6.13;;
15889;SDS011;8043;49.388;12.128;2022-11-20T02:23:01;11.97;;;6.57;;
15889;SDS011;8043;49.388;12.128;2022-11-20T02:28:00;15.17;;;5.67;;
15889;SDS011;8043;49.388;12.128;2022-11-20T02:33:02;13.37;;;5.47;;
15889;SDS011;8043;49.388;12.128;2022-11-20T02:38:04;10.23;;;4.63;;
15889;SDS011;8043;49.388;12.128;2022-11-20T02:43:07;9.17;;;5.07;;
15889;SDS011;8043;49.388;12.128;2022-11-20T02:48:09;9.77;;;5.50;;
15889;SDS011;8043;49.388;12.128;2022-11-20T02:53:12;12.47;;;6.47;;
15889;SDS011;8043;49.388;12.128;2022-11-20T02:58:14;16.87;;;6.63;;
15889;SDS011;8043;49.388;12.128;2022-11-20T03:03:16;15.13;;;6.47;;
15889;SDS011;8043;49.388;12.128;2022-11-20T03:08:18;13.27;;;6.07;;
15889;SDS011;8043;49.388;12.128;2022-11-20T03:13:20;11.77;;;5.77;;
15889;SDS011;8043;49.388;12.128;2022-11-20T03:18:22;8.17;;;4.33;;
15889;SDS011;8043;49.388;12.128;2022-11-20T03:23:25;14.53;;;6.47;;
15889;SDS011;8043;49.388;12.128;2022-11-20T03:28:27;12.40;;;6.30;;
15889;SDS011;8043;49.388;12.128;2022-11-20T03:33:29;9.13;;;5.07;;
15889;SDS011;8043;49.388;12.128;2022-11-20T03:38:32;12.63;;;4.97;;
15889;SDS011;8043;49.388;12.128;2022-11-20T03:43:34;10.60;;;5.67;;
15889;SDS011;8043;49.388;12.128;2022-11-20T03:48:37;11.10;;;4.87;;
15889;SDS011;8043;49.388;12.128;2022-11-20T03:53:39;12.20;;;6.23;;
15889;SDS011;8043;49.388;12.128;2022-11-20T03:58:42;10.40;;;5.47;;
15889;SDS011;8043;49.388;12.128;2022-11-20T04:03:45;15.50;;;5.57;;
15889;SDS011;8043;49.388;12.128;2022-11-20T04:08:47;13.53;;;6.20;;
15889;SDS011;8043;49.388;12.128;2022-11-20T04:13:53;12.77;;;5.87;;
15889;SDS011;8043;49.388;12.128;2022-11-20T04:18:57;13.30;;;4.83;;
15889;SDS011;8043;49.388;12.128;2022-11-20T04:24:01;11.17;;;5.63;;
15889;SDS011;8043;49.388;12.128;2022-11-20T04:29:03;12.87;;;5.93;;
15889;SDS011;8043;49.388;12.128;2022-11-20T04:34:06;15.17;;;7.60;;
15889;SDS011;8043;49.388;12.128;2022-11-20T04:39:11;10.90;;;4.60;;
15889;SDS011;8043;49.388;12.128;2022-11-20T04:44:13;23.70;;;5.97;;
15889;SDS011;8043;49.388;12.128;2022-11-20T04:49:15;14.83;;;6.57;;
15889;SDS011;8043;49.388;12.128;2022-11-20T04:54:17;9.53;;;4.20;;
15889;SDS011;8043;49.388;12.128;2022-11-20T04:59:21;15.87;;;6.30;;
15889;SDS011;8043;49.388;12.128;2022-11-20T05:04:23;13.10;;;6.70;;
15889;SDS011;8043;49.388;12.128;2022-11-20T05:09:25;9.80;;;5.30;;
15889;SDS011;8043;49.388;12.128;2022-11-20T05:14:27;13.87;;;5.57;;
15889;SDS011;8043;49.388;12.128;2022-11-20T05:19:30;16.10;;;5.87;;
15889;SDS011;8043;49.388;12.128;2022-11-20T05:24:32;10.07;;;5.17;;
15889;SDS011;8043;49.388;12.128;2022-11-20T05:29:34;17.63;;;7.90;;
15889;SDS011;8043;49.388;12.128;2022-11-20T05:34:36;12.07;;;5.50;;
15889;SDS011;8043;49.388;12.128;2022-11-20T05:39:38;14.27;;;7.30;;
15889;SDS011;8043;49.388;12.128;2022-11-20T05:44:41;17.30;;;7.00;;
15889;SDS011;8043;49.388;12.128;2022-11-20T05:49:43;14.00;;;5.73;;
15889;SDS011;8043;49.388;12.128;2022-11-20T05:54:45;12.77;;;6.60;;
15889;SDS011;8043;49.388;12.128;2022-11-20T05:59:47;9.93;;;5.70;;
15889;SDS011;8043;49.388;12.128;2022-11-20T06:04:49;13.60;;;7.43;;
15889;SDS011;8043;49.388;12.128;2022-11-20T06:09:52;15.57;;;6.83;;
15889;SDS011;8043;49.388;12.128;2022-11-20T06:14:54;13.47;;;5.43;;
15889;SDS011;8043;49.388;12.128;2022-11-20T06:19:56;12.67;;;6.23;;
15889;SDS011;8043;49.388;12.128;2022-11-20T06:24:58;12.80;;;4.73;;
15889;SDS011;8043;49.388;12.128;2022-11-20T06:30:00;10.93;;;4.67;;
15889;SDS011;8043;49.388;12.128;2022-11-20T06:35:03;11.00;;;5.63;;
15889;SDS011;8043;49.388;12.128;2022-11-20T06:40:05;13.80;;;6.40;;
15889;SDS011;8043;49.388;12.128;2022-11-20T06:45:09;10.20;;;4.93;;
15889;SDS011;8043;49.388;12.128;2022-11-20T06:50:11;16.43;;;8.17;;
15889;SDS011;8043;49.388;12.128;2022-11-20T06:55:13;12.00;;;6.20;;
15889;SDS011;8043;49.388;12.128;2022-11-20T07:00:16;15.27;;;6.70;;
15889;SDS011;8043;49.388;12.128;2022-11-20T07:05:20;11.93;;;5.10;;
15889;SDS011;8043;49.388;12.128;2022-11-20T07:10:22;14.17;;;7.30;;
15889;SDS011;8043;49.388;12.128;2022-11-20T07:15:24;14.37;;;6.23;;
15889;SDS011;8043;49.388;12.128;2022-11-20T07:20:27;13.03;;;5.60;;
15889;SDS011;8043;49.388;12.128;2022-11-20T07:25:29;16.20;;;6.60;;
15889;SDS011;8043;49.388;12.128;2022-11-20T07:30:31;17.40;;;6.77;;
15889;SDS011;8043;49.388;12.128;2022-11-20T07:35:33;10.63;;;6.10;;
15889;SDS011;8043;49.388;12.128;2022-11-20T07:40:36;14.90;;;6.03;;
15889;SDS011;8043;49.388;12.128;2022-11-20T07:45:38;13.93;;;6.03;;
15889;SDS011;8043;49.388;12.128;2022-11-20T07:50:40;13.23;;;6.63;;
15889;SDS011;8043;49.388;12.128;2022-11-20T07:55:43;10.83;;;5.40;;
15889;SDS011;8043;49.388;12.128;2022-11-20T08:00:45;16.43;;;6.83;;
15889;SDS011;8043;49.388;12.128;2022-11-20T08:05:47;13.90;;;6.13;;
15889;SDS011;8043;49.388;12.128;2022-11-20T08:10:49;11.13;;;5.90;;
15889;SDS011;8043;49.388;12.128;2022-11-20T08:15:51;15.63;;;6.77;;
15889;SDS011;8043;49.388;12.128;2022-11-20T08:20:53;15.83;;;8.20;;
15889;SDS011;8043;49.388;12.128;2022-11-20T08:25:56;20.40;;;11.50;;
15889;SDS011;8043;49.388;12.128;2022-11-20T08:30:59;30.50;;;15.43;;
15889;SDS011;8043;49.388;12.128;2022-11-20T08:36:02;31.10;;;15.50;;
15889;SDS011;8043;49.388;12.128;2022-11-20T08:41:05;37.20;;;16.17;;
15889;SDS011;8043;49.388;12.128;2022-11-20T08:46:37;29.70;;;14.60;;
15889;SDS011;8043;49.388;12.128;2022-11-20T08:51:41;20.33;;;8.23;;
15889;SDS011;8043;49.388;12.128;2022-11-20T08:56:43;15.80;;;7.20;;
15889;SDS011;8043;49.388;12.128;2022-11-20T09:01:46;15.07;;;7.20;;
15889;SDS011;8043;49.388;12.128;2022-11-20T09:06:48;13.50;;;6.37;;
15889;SDS011;8043;49.388;12.128;2022-11-20T09:11:52;14.37;;;6.40;;
15889;SDS011;8043;49.388;12.128;2022-11-20T09:16:54;16.83;;;7.20;;
15889;SDS011;8043;49.388;12.128;2022-11-20T09:21:58;14.03;;;5.50;;
15889;SDS011;8043;49.388;12.128;2022-11-20T09:27:04;14.17;;;7.53;;
15889;SDS011;8043;49.388;12.128;2022-11-20T09:32:06;10.90;;;5.83;;
15889;SDS011;8043;49.388;12.128;2022-11-20T09:37:08;11.93;;;5.70;;
15889;SDS011;8043;49.388;12.128;2022-11-20T09:47:25;9.80;;;4.40;;
15889;SDS011;8043;49.388;12.128;2022-11-20T09:57:51;11.57;;;5.23;;
15889;SDS011;8043;49.388;12.128;2022-11-20T10:08:20;18.07;;;6.57;;
15889;SDS011;8043;49.388;12.128;2022-11-20T10:24:24;14.00;;;7.03;;
15889;SDS011;8043;49.388;12.128;2022-11-20T10:29:41;16.60;;;8.17;;
15889;SDS011;8043;49.388;12.128;2022-11-20T10:34:57;25.53;;;9.70;;
15889;SDS011;8043;49.388;12.128;2022-11-20T10:50:46;12.90;;;6.57;;
15889;SDS011;8043;49.388;12.128;2022-11-20T10:55:46;16.67;;;7.70;;
15889;SDS011;8043;49.388;12.128;2022-11-20T11:01:02;14.03;;;7.53;;
15889;SDS011;8043;49.388;12.128;2022-11-20T11:06:10;19.43;;;6.83;;
15889;SDS011;8043;49.388;12.128;2022-11-20T11:11:24;20.67;;;9.43;;
15889;SDS011;8043;49.388;12.128;2022-11-20T11:16:30;14.27;;;7.27;;
15889;SDS011;8043;49.388;12.128;2022-11-20T11:21:32;13.13;;;7.70;;
15889;SDS011;8043;49.388;12.128;2022-11-20T11:26:34;13.63;;;7.00;;
15889;SDS011;8043;49.388;12.128;2022-11-20T11:31:36;13.47;;;6.87;;
15889;SDS011;8043;49.388;12.128;2022-11-20T11:36:39;13.27;;;7.20;;
15889;SDS011;8043;49.388;12.128;2022-11-20T11:41:44;13.47;;;7.73;;
15889;SDS011;8043;49.388;12.128;2022-11-20T11:46:52;14.20;;;6.50;;
15889;SDS011;8043;49.388;12.128;2022-11-20T11:57:00;16.70;;;8.27;;
15889;SDS011;8043;49.388;12.128;2022-11-20T12:02:11;16.47;;;7.20;;
15889;SDS011;8043;49.388;12.128;2022-11-20T12:07:29;15.37;;;8.63;;
15889;SDS011;8043;49.388;12.128;2022-11-20T12:12:37;10.10;;;6.07;;
15889;SDS011;8043;49.388;12.128;2022-11-20T12:17:42;15.30;;;8.97;;
15889;SDS011;8043;49.388;12.128;2022-11-20T12:33:19;23.13;;;9.80;;
15889;SDS011;8043;49.388;12.128;2022-11-20T12:43:46;14.00;;;6.97;;
15889;SDS011;8043;49.388;12.128;2022-11-20T12:59:56;9.50;;;4.53;;
15889;SDS011;8043;49.388;12.128;2022-11-20T13:10:37;15.33;;;6.07;;
15889;SDS011;8043;49.388;12.128;2022-11-20T13:20:52;11.00;;;5.23;;
15889;SDS011;8043;49.388;12.128;2022-11-20T13:26:05;19.30;;;7.80;;
15889;SDS011;8043;49.388;12.128;2022-11-20T13:31:09;7.35;;;4.17;;
15889;SDS011;8043;49.388;12.128;2022-11-20T13:36:27;9.00;;;6.40;;
15889;SDS011;8043;49.388;12.128;2022-11-20T13:41:31;14.53;;;6.43;;
15889;SDS011;8043;49.388;12.128;2022-11-20T13:51:44;12.77;;;7.10;;
15889;SDS011;8043;49.388;12.128;2022-11-20T13:57:08;13.87;;;7.93;;
15889;SDS011;8043;49.388;12.128;2022-11-20T14:02:27;14.57;;;8.03;;
15889;SDS011;8043;49.388;12.128;2022-11-20T14:07:40;14.07;;;6.03;;
15889;SDS011;8043;49.388;12.128;2022-11-20T14:12:43;11.43;;;6.27;;
15889;SDS011;8043;49.388;12.128;2022-11-20T14:17:45;14.17;;;6.87;;
15889;SDS011;8043;49.388;12.128;2022-11-20T14:22:48;14.30;;;8.73;;
15889;SDS011;8043;49.388;12.128;2022-11-20T14:27:55;14.53;;;7.37;;
15889;SDS011;8043;49.388;12.128;2022-11-20T14:33:01;31.63;;;12.80;;
15889;SDS011;8043;49.388;12.128;2022-11-20T14:38:04;28.90;;;12.40;;
15889;SDS011;8043;49.388;12.128;2022-11-20T14:43:20;31.73;;;12.13;;
15889;SDS011;8043;49.388;12.128;2022-11-20T14:48:25;18.35;;;9.63;;
15889;SDS011;8043;49.388;12.128;2022-11-20T14:53:35;18.37;;;9.53;;
15889;SDS011;8043;49.388;12.128;2022-11-20T14:58:37;21.17;;;8.40;;
15889;SDS011;8043;49.388;12.128;2022-11-20T15:03:40;16.73;;;8.20;;
15889;SDS011;8043;49.388;12.128;2022-11-20T15:08:50;6.13;;;4.27;;
15889;SDS011;8043;49.388;12.128;2022-11-20T15:13:53;10.37;;;5.33;;
15889;SDS011;8043;49.388;12.128;2022-11-20T15:18:55;7.72;;;4.80;;
15889;SDS011;8043;49.388;12.128;2022-11-20T15:23:58;7.60;;;4.07;;
15889;SDS011;8043;49.388;12.128;2022-11-20T15:29:01;4.70;;;2.73;;
15889;SDS011;8043;49.388;12.128;2022-11-20T15:34:05;4.60;;;2.90;;
15889;SDS011;8043;49.388;12.128;2022-11-20T15:39:09;6.80;;;3.83;;
15889;SDS011;8043;49.388;12.128;2022-11-20T15:44:11;13.00;;;8.27;;
15889;SDS011;8043;49.388;12.128;2022-11-20T15:49:15;7.83;;;4.10;;
15889;SDS011;8043;49.388;12.128;2022-11-20T15:54:21;11.27;;;5.93;;
15889;SDS011;8043;49.388;12.128;2022-11-20T15:59:23;12.63;;;7.07;;
15889;SDS011;8043;49.388;12.128;2022-11-20T16:04:25;8.97;;;4.20;;
15889;SDS011;8043;49.388;12.128;2022-11-20T16:09:28;3.73;;;2.20;;
15889;SDS011;8043;49.388;12.128;2022-11-20T16:14:35;4.10;;;2.27;;
15889;SDS011;8043;49.388;12.128;2022-11-20T16:19:56;36.10;;;24.50;;
15889;SDS011;8043;49.388;12.128;2022-11-20T16:24:58;11.43;;;7.47;;
15889;SDS011;8043;49.388;12.128;2022-11-20T16:30:00;6.80;;;4.40;;
15889;SDS011;8043;49.388;12.128;2022-11-20T16:35:02;9.40;;;4.40;;
15889;SDS011;8043;49.388;12.128;2022-11-20T16:40:05;7.53;;;3.57;;
15889;SDS011;8043;49.388;12.128;2022-11-20T16:45:14;6.33;;;2.67;;
15889;SDS011;8043;49.388;12.128;2022-11-20T16:50:17;5.83;;;3.10;;
15889;SDS011;8043;49.388;12.128;2022-11-20T16:55:21;5.10;;;3.27;;
15889;SDS011;8043;49.388;12.128;2022-11-20T17:00:24;7.97;;;5.00;;
15889;SDS011;8043;49.388;12.128;2022-11-20T17:05:28;7.60;;;4.87;;
15889;SDS011;8043;49.388;12.128;2022-11-20T17:10:30;10.67;;;5.77;;
15889;SDS011;8043;49.388;12.128;2022-11-20T17:15:34;11.07;;;5.60;;
15889;SDS011;8043;49.388;12.128;2022-11-20T17:20:36;11.63;;;5.80;;
15889;SDS011;8043;49.388;12.128;2022-11-20T17:25:38;9.10;;;5.00;;
15889;SDS011;8043;49.388;12.128;2022-11-20T17:30:40;7.17;;;3.87;;
15889;SDS011;8043;49.388;12.128;2022-11-20T17:35:43;10.23;;;4.53;;
15889;SDS011;8043;49.388;12.128;2022-11-20T17:40:45;10.33;;;5.33;;
15889;SDS011;8043;49.388;12.128;2022-11-20T17:45:47;8.13;;;4.60;;
15889;SDS011;8043;49.388;12.128;2022-11-20T17:50:49;9.93;;;4.87;;
15889;SDS011;8043;49.388;12.128;2022-11-20T17:55:55;6.93;;;4.03;;
15889;SDS011;8043;49.388;12.128;2022-11-20T18:01:16;8.80;;;4.67;;
15889;SDS011;8043;49.388;12.128;2022-11-20T18:06:19;9.07;;;5.13;;
15889;SDS011;8043;49.388;12.128;2022-11-20T18:16:27;8.17;;;4.40;;
15889;SDS011;8043;49.388;12.128;2022-11-20T18:21:33;6.50;;;4.30;;
15889;SDS011;8043;49.388;12.128;2022-11-20T18:26:35;8.83;;;6.47;;
15889;SDS011;8043;49.388;12.128;2022-11-20T18:31:37;10.83;;;6.40;;
15889;SDS011;8043;49.388;12.128;2022-11-20T18:36:40;11.83;;;5.80;;
15889;SDS011;8043;49.388;12.128;2022-11-20T18:41:42;11.97;;;6.97;;
15889;SDS011;8043;49.388;12.128;2022-11-20T18:47:03;12.27;;;6.33;;
15889;SDS011;8043;49.388;12.128;2022-11-20T18:52:07;23.73;;;10.30;;
15889;SDS011;8043;49.388;12.128;2022-11-20T18:57:09;20.30;;;10.23;;
15889;SDS011;8043;49.388;12.128;2022-11-20T19:02:14;20.43;;;11.47;;
15889;SDS011;8043;49.388;12.128;2022-11-20T19:07:17;20.47;;;9.93;;
15889;SDS011;8043;49.388;12.128;2022-11-20T19:12:19;21.00;;;8.80;;
15889;SDS011;8043;49.388;12.128;2022-11-20T19:17:22;21.03;;;7.43;;
15889;SDS011;8043;49.388;12.128;2022-11-20T19:22:24;13.47;;;5.53;;
15889;SDS011;8043;49.388;12.128;2022-11-20T19:27:26;9.43;;;4.20;;
15889;SDS011;8043;49.388;12.128;2022-11-20T19:32:29;8.67;;;4.83;;
15889;SDS011;8043;49.388;12.128;2022-11-20T19:37:32;15.70;;;6.93;;
15889;SDS011;8043;49.388;12.128;2022-11-20T19:42:35;13.20;;;6.03;;
15889;SDS011;8043;49.388;12.128;2022-11-20T19:47:37;7.60;;;4.00;;
15889;SDS011;8043;49.388;12.128;2022-11-20T19:52:40;10.97;;;5.70;;
15889;SDS011;8043;49.388;12.128;2022-11-20T19:57:42;8.33;;;4.27;;
15889;SDS011;8043;49.388;12.128;2022-11-20T20:02:44;16.23;;;8.87;;
15889;SDS011;8043;49.388;12.128;2022-11-20T20:07:47;14.80;;;6.77;;
15889;SDS011;8043;49.388;12.128;2022-11-20T20:12:49;11.20;;;5.53;;
15889;SDS011;8043;49.388;12.128;2022-11-20T20:17:52;11.33;;;5.93;;
15889;SDS011;8043;49.388;12.128;2022-11-20T20:22:54;10.53;;;4.25;;
15889;SDS011;8043;49.388;12.128;2022-11-20T20:27:56;9.67;;;4.47;;
15889;SDS011;8043;49.388;12.128;2022-11-20T20:32:58;6.57;;;3.93;;
15889;SDS011;8043;49.388;12.128;2022-11-20T20:38:01;7.70;;;4.83;;
15889;SDS011;8043;49.388;12.128;2022-11-20T20:43:03;6.37;;;3.57;;
15889;SDS011;8043;49.388;12.128;2022-11-20T20:48:05;6.03;;;3.27;;
15889;SDS011;8043;49.388;12.128;2022-11-20T20:53:08;7.10;;;3.93;;
15889;SDS011;8043;49.388;12.128;2022-11-20T20:58:10;5.17;;;3.43;;
15889;SDS011;8043;49.388;12.128;2022-11-20T21:03:15;7.27;;;3.80;;
15889;SDS011;8043;49.388;12.128;2022-11-20T21:08:18;8.20;;;3.50;;
15889;SDS011;8043;49.388;12.128;2022-11-20T21:13:28;7.37;;;3.57;;
15889;SDS011;8043;49.388;12.128;2022-11-20T21:18:32;6.13;;;3.37;;
15889;SDS011;8043;49.388;12.128;2022-11-20T21:23:34;5.93;;;2.87;;
15889;SDS011;8043;49.388;12.128;2022-11-20T21:28:37;7.43;;;4.17;;
15889;SDS011;8043;49.388;12.128;2022-11-20T21:33:42;6.23;;;4.43;;
15889;SDS011;8043;49.388;12.128;2022-11-20T21:38:45;6.37;;;4.17;;
15889;SDS011;8043;49.388;12.128;2022-11-20T21:43:49;8.67;;;4.23;;
15889;SDS011;8043;49.388;12.128;2022-11-20T21:48:51;6.70;;;3.90;;
15889;SDS011;8043;49.388;12.128;2022-11-20T21:53:54;7.00;;;4.23;;
15889;SDS011;8043;49.388;12.128;2022-11-20T21:58:56;8.97;;;4.87;;
15889;SDS011;8043;49.388;12.128;2022-11-20T22:04:04;8.27;;;3.87;;
15889;SDS011;8043;49.388;12.128;2022-11-20T22:09:07;8.57;;;3.83;;
15889;SDS011;8043;49.388;12.128;2022-11-20T22:14:17;11.57;;;4.63;;
15889;SDS011;8043;49.388;12.128;2022-11-20T22:19:22;7.00;;;3.60;;
15889;SDS011;8043;49.388;12.128;2022-11-20T22:24:24;7.33;;;3.47;;
15889;SDS011;8043;49.388;12.128;2022-11-20T22:29:26;6.00;;;3.50;;
15889;SDS011;8043;49.388;12.128;2022-11-20T22:34:29;5.10;;;3.00;;
15889;SDS011;8043;49.388;12.128;2022-11-20T22:39:31;6.80;;;3.10;;
15889;SDS011;8043;49.388;12.128;2022-11-20T22:44:33;5.00;;;2.73;;
15889;SDS011;8043;49.388;12.128;2022-11-20T22:49:35;3.37;;;2.27;;
15889;SDS011;8043;49.388;12.128;2022-11-20T22:54:37;4.60;;;2.57;;
15889;SDS011;8043;49.388;12.128;2022-11-20T22:59:40;6.90;;;2.63;;
15889;SDS011;8043;49.388;12.128;2022-11-20T23:04:42;4.60;;;2.50;;
15889;SDS011;8043;49.388;12.128;2022-11-20T23:09:44;3.50;;;2.10;;
15889;SDS011;8043;49.388;12.128;2022-11-20T23:14:46;3.47;;;1.73;;
15889;SDS011;8043;49.388;12.128;2022-11-20T23:19:48;3.27;;;1.87;;
15889;SDS011;8043;49.388;12.128;2022-11-20T23:24:51;4.77;;;2.17;;
15889;SDS011;8043;49.388;12.128;2022-11-20T23:29:56;5.00;;;2.40;;
15889;SDS011;8043;49.388;12.128;2022-11-20T23:34:58;6.47;;;2.93;;
15889;SDS011;8043;49.388;12.128;2022-11-20T23:40:01;2.70;;;2.30;;
15889;SDS011;8043;49.388;12.128;2022-11-20T23:45:03;5.40;;;2.77;;
15889;SDS011;8043;49.388;12.128;2022-11-20T23:50:07;5.53;;;2.57;;
15889;SDS011;8043;49.388;12.128;2022-11-20T23:55:12;2.63;;;1.80;;
